Time;durP1;ratioP1;P1;durP2;ratioP2;P2;SDS_P1;SDS_P2;PMS_P1;PMS_P2;Temp;Humidity;BMP_temperature;BMP_pressure;BME280_temperature;BME280_humidity;BME280_pressure;Samples;Min_cycle;Max_cycle;Signal;HPM_P1;HPM_P2
2022/02/28 15:21:11;;;;;;;;;;;12.40;82.90;;;;;;5068484;28;20472;-46
2022/02/28 15:23:38;;;;;;;10.27;2.95;;;12.30;83.80;;;;;;5049855;28;19936;-52
2022/02/28 15:26:05;;;;;;;10.57;2.38;;;12.20;82.70;;;;;;5049590;28;20401;-46
2022/02/28 15:28:31;;;;;;;12.70;2.58;;;12.20;83.40;;;;;;5049652;28;20047;-50
2022/02/28 15:30:58;;;;;;;13.75;2.92;;;12.20;83.80;;;;;;5049953;28;20041;-45
2022/02/28 15:33:25;;;;;;;9.65;2.60;;;12.30;84.60;;;;;;5049824;28;20392;-49
2022/02/28 15:35:52;;;;;;;10.90;2.80;;;12.30;84.50;;;;;;5049770;28;20042;-50
2022/02/28 15:38:19;;;;;;;8.45;3.33;;;12.30;84.90;;;;;;5049627;28;20037;-49
2022/02/28 15:40:45;;;;;;;11.52;2.90;;;12.30;84.60;;;;;;5049579;28;20060;-53
2022/02/28 15:43:12;;;;;;;10.75;3.15;;;12.30;84.70;;;;;;5049033;28;20143;-46
2022/02/28 15:45:39;;;;;;;11.35;3.63;;;12.30;85.40;;;;;;5049554;28;20107;-54
2022/02/28 15:48:06;;;;;;;10.77;2.78;;;12.40;85.40;;;;;;5049408;28;20040;-46
2022/02/28 15:50:33;;;;;;;8.77;2.85;;;12.40;85.60;;;;;;5048109;28;20067;-47
2022/02/28 15:53:00;;;;;;;8.23;2.65;;;12.40;85.70;;;;;;5048294;28;20048;-51
2022/02/28 15:55:27;;;;;;;12.82;3.35;;;12.40;85.70;;;;;;5049613;28;20045;-51
2022/02/28 15:57:55;;;;;;;12.25;3.10;;;12.30;86.40;;;;;;5050183;28;20056;-48
2022/02/28 16:00:24;;;;;;;11.73;3.42;;;12.30;86.50;;;;;;5048473;28;20045;-50
2022/02/28 16:02:51;;;;;;;10.63;3.67;;;12.30;86.80;;;;;;5048173;28;20468;-49
2022/02/28 16:05:18;;;;;;;14.25;3.67;;;12.30;86.90;;;;;;5049259;28;20069;-52
2022/02/28 16:07:45;;;;;;;13.70;3.20;;;12.30;87.10;;;;;;5049226;28;20482;-55
2022/02/28 16:10:11;;;;;;;11.90;3.38;;;12.30;87.40;;;;;;5049093;28;20412;-49
2022/02/28 16:12:38;;;;;;;12.23;3.40;;;12.30;88.00;;;;;;5052645;28;20067;-52
2022/02/28 16:15:05;;;;;;;19.73;4.38;;;12.20;88.10;;;;;;5051360;28;20370;-45
2022/02/28 16:17:32;;;;;;;12.13;3.55;;;12.20;88.50;;;;;;5047652;28;20068;-51
2022/02/28 16:19:59;;;;;;;9.10;3.22;;;12.20;88.80;;;;;;5048690;28;20053;-50
2022/02/28 16:22:25;;;;;;;10.07;3.53;;;12.20;88.80;;;;;;5048938;28;20060;-46
2022/02/28 16:24:52;;;;;;;9.77;3.10;;;12.20;89.20;;;;;;5048848;28;20129;-49
2022/02/28 16:27:19;;;;;;;12.82;3.80;;;12.10;89.30;;;;;;5048803;28;20400;-51
2022/02/28 16:29:46;;;;;;;14.38;4.18;;;12.10;89.50;;;;;;5048591;28;20045;-50
2022/02/28 16:32:13;;;;;;;12.65;3.67;;;12.10;89.70;;;;;;5037443;28;20116;-51
2022/02/28 16:34:39;;;;;;;14.88;3.53;;;12.10;89.90;;;;;;5035484;28;20056;-55
2022/02/28 16:37:06;;;;;;;13.57;4.38;;;12.00;90.00;;;;;;5035242;28;20069;-49
2022/02/28 16:39:33;;;;;;;12.68;4.75;;;12.00;90.00;;;;;;5035226;28;20040;-47
2022/02/28 16:42:02;;;;;;;12.23;4.45;;;12.00;90.10;;;;;;5035592;28;20045;-52
2022/02/28 16:44:29;;;;;;;11.15;4.50;;;11.90;90.20;;;;;;5037391;28;20406;-52
2022/02/28 16:46:56;;;;;;;13.82;4.63;;;11.90;90.30;;;;;;5035379;28;20481;-47
2022/02/28 16:49:24;;;;;;;12.75;4.68;;;11.90;90.50;;;;;;5034958;28;20049;-50
2022/02/28 16:51:50;;;;;;;13.82;4.63;;;11.90;90.50;;;;;;5035178;28;20044;-51
2022/02/28 16:54:17;;;;;;;11.18;4.38;;;11.90;90.60;;;;;;5035161;28;20029;-50
2022/02/28 16:56:44;;;;;;;13.48;4.97;;;11.90;90.60;;;;;;5035130;28;20042;-55
2022/02/28 16:59:11;;;;;;;14.18;5.10;;;11.90;90.70;;;;;;5034626;28;20042;-44
2022/02/28 17:01:38;;;;;;;16.13;5.45;;;11.80;90.70;;;;;;5035068;28;20460;-53
2022/02/28 17:04:05;;;;;;;15.95;5.22;;;11.80;90.80;;;;;;5034800;28;20041;-49
2022/02/28 17:06:32;;;;;;;12.77;4.85;;;11.80;90.90;;;;;;5034926;28;20042;-53
2022/02/28 17:08:59;;;;;;;13.90;5.10;;;11.80;90.90;;;;;;5034445;28;20049;-45
2022/02/28 17:11:26;;;;;;;13.85;4.85;;;11.80;91.00;;;;;;5034977;28;20468;-48
2022/02/28 17:13:52;;;;;;;9.85;4.32;;;11.80;91.10;;;;;;5039076;28;20046;-47
2022/02/28 17:16:19;;;;;;;12.27;4.70;;;11.80;91.00;;;;;;5034658;28;20069;-43
2022/02/28 17:18:46;;;;;;;16.90;5.10;;;11.80;91.10;;;;;;5034295;28;20045;-48
2022/02/28 17:21:13;;;;;;;14.27;4.68;;;11.70;91.20;;;;;;5034501;28;20120;-47
2022/02/28 17:23:40;;;;;;;19.90;5.57;;;11.70;91.40;;;;;;5034302;28;20041;-55
2022/02/28 17:26:07;;;;;;;14.63;5.25;;;11.70;91.30;;;;;;5034396;28;20125;-56
2022/02/28 17:28:33;;;;;;;9.82;5.53;;;11.60;91.50;;;;;;5033513;28;20053;-52
2022/02/28 17:31:01;;;;;;;13.38;5.53;;;11.60;91.50;;;;;;5034164;28;20045;-46
2022/02/28 17:33:29;;;;;;;21.70;5.28;;;11.60;91.60;;;;;;5034183;28;20073;-55
2022/02/28 17:35:56;;;;;;;13.57;4.75;;;11.60;91.70;;;;;;5033895;28;20120;-54
2022/02/28 17:38:23;;;;;;;12.95;4.95;;;11.60;91.80;;;;;;5032836;28;20052;-52
2022/02/28 17:40:50;;;;;;;12.10;4.80;;;11.50;91.70;;;;;;5034276;28;20042;-44
2022/02/28 17:43:17;;;;;;;16.35;5.47;;;11.50;91.80;;;;;;5033589;28;20041;-52
2022/02/28 17:45:43;;;;;;;14.27;5.45;;;11.50;91.90;;;;;;5034164;28;20400;-54
2022/02/28 17:48:10;;;;;;;17.98;5.75;;;11.40;91.90;;;;;;5033996;28;20044;-54
2022/02/28 17:50:37;;;;;;;12.10;5.68;;;11.40;92.00;;;;;;5033926;28;20048;-50
2022/02/28 17:53:04;;;;;;;13.43;6.15;;;11.40;92.20;;;;;;5033764;28;20566;-48
2022/02/28 17:55:31;;;;;;;17.13;6.45;;;11.30;92.30;;;;;;5034018;28;20382;-54
2022/02/28 17:57:57;;;;;;;15.32;7.15;;;11.30;92.30;;;;;;5033938;28;20037;-56
2022/02/28 18:00:26;;;;;;;14.63;6.35;;;11.30;92.40;;;;;;5033698;28;20507;-53
2022/02/28 18:02:54;;;;;;;13.32;6.20;;;11.20;92.40;;;;;;5034203;28;20119;-51
2022/02/28 18:05:21;;;;;;;15.40;6.63;;;11.20;92.40;;;;;;5034363;28;20440;-54
2022/02/28 18:07:50;;;;;;;14.32;6.68;;;11.20;92.40;;;;;;5034359;28;20056;-47
2022/02/28 18:10:17;;;;;;;21.30;6.93;;;11.20;92.40;;;;;;5032908;28;20059;-54
2022/02/28 18:12:44;;;;;;;17.15;6.88;;;11.20;92.40;;;;;;5038345;28;20056;-54
2022/02/28 18:15:10;;;;;;;18.17;7.30;;;11.20;92.50;;;;;;5033966;28;20524;-54
2022/02/28 18:17:37;;;;;;;19.60;6.93;;;11.20;92.60;;;;;;5034066;28;20071;-49
2022/02/28 18:20:04;;;;;;;16.90;7.18;;;11.20;92.50;;;;;;5035499;28;20400;-47
2022/02/28 18:22:32;;;;;;;19.48;7.55;;;11.10;92.50;;;;;;5033959;28;20603;-52
2022/02/28 18:24:59;;;;;;;18.92;7.10;;;11.20;92.60;;;;;;5034051;28;20120;-48
2022/02/28 18:27:26;;;;;;;17.77;7.47;;;11.10;92.50;;;;;;5033779;28;20042;-52
2022/02/28 18:29:52;;;;;;;23.45;8.40;;;11.10;92.40;;;;;;5033810;28;20476;-52
2022/02/28 18:32:19;;;;;;;16.55;7.97;;;11.10;92.40;;;;;;5033799;28;20064;-50
2022/02/28 18:34:46;;;;;;;17.63;8.27;;;11.00;92.50;;;;;;5033619;28;20037;-54
2022/02/28 18:37:13;;;;;;;16.83;7.18;;;11.10;92.40;;;;;;5033734;28;20038;-45
2022/02/28 18:39:39;;;;;;;19.60;8.13;;;11.00;92.40;;;;;;5033370;28;20041;-51
2022/02/28 18:42:06;;;;;;;17.02;7.97;;;11.00;92.30;;;;;;5033381;28;20056;-50
2022/02/28 18:44:33;;;;;;;17.02;7.35;;;11.00;92.40;;;;;;5027056;28;20076;-46
2022/02/28 18:47:00;;;;;;;20.25;7.30;;;11.00;92.40;;;;;;5027275;28;20037;-53
2022/02/28 18:49:27;;;;;;;18.90;7.88;;;11.00;92.50;;;;;;5033282;28;20473;-51
2022/02/28 18:51:54;;;;;;;22.83;8.73;;;11.00;92.40;;;;;;5038795;28;20484;-56
2022/02/28 18:54:20;;;;;;;17.98;8.00;;;10.90;92.40;;;;;;5035151;28;20072;-53
2022/02/28 18:56:47;;;;;;;22.45;9.15;;;10.90;92.40;;;;;;5033281;28;20041;-50
2022/02/28 18:59:14;;;;;;;15.23;7.70;;;10.90;92.70;;;;;;5033296;28;20069;-49
2022/02/28 19:01:41;;;;;;;18.63;8.27;;;10.90;92.80;;;;;;5033305;28;20117;-52
2022/02/28 19:04:08;;;;;;;19.75;8.27;;;10.90;92.70;;;;;;5033665;28;20489;-56
2022/02/28 19:06:35;;;;;;;15.20;7.82;;;10.90;92.90;;;;;;5033461;28;20125;-51
2022/02/28 19:09:02;;;;;;;16.20;8.52;;;10.80;93.20;;;;;;5032126;28;20052;-52
2022/02/28 19:11:29;;;;;;;17.83;8.35;;;10.80;93.40;;;;;;5033483;28;20053;-50
2022/02/28 19:13:58;;;;;;;22.10;9.40;;;10.80;93.40;;;;;;5032915;28;20064;-56
2022/02/28 19:16:25;;;;;;;15.77;8.52;;;10.70;93.70;;;;;;5029903;28;20045;-48
2022/02/28 19:18:52;;;;;;;18.90;8.68;;;10.70;93.80;;;;;;5030926;28;20117;-48
2022/02/28 19:21:19;;;;;;;18.88;10.57;;;10.70;93.80;;;;;;5036457;28;20048;-53
2022/02/28 19:23:45;;;;;;;20.30;8.48;;;10.60;94.10;;;;;;5032681;28;20043;-52
2022/02/28 19:26:12;;;;;;;17.50;9.25;;;10.60;94.20;;;;;;5031667;28;20037;-49
2022/02/28 19:28:39;;;;;;;25.08;9.35;;;10.60;94.30;;;;;;5031127;28;20500;-51
2022/02/28 19:31:06;;;;;;;17.20;8.90;;;10.60;94.40;;;;;;5031520;28;20049;-49
2022/02/28 19:33:34;;;;;;;21.55;9.73;;;10.60;94.40;;;;;;5034087;28;20045;-47
2022/02/28 19:36:01;;;;;;;17.38;9.35;;;10.50;94.70;;;;;;5032517;28;20152;-48
2022/02/28 19:38:28;;;;;;;18.58;9.77;;;10.50;94.80;;;;;;5031858;28;20496;-47
2022/02/28 19:40:57;;;;;;;21.85;10.35;;;10.50;95.10;;;;;;5030729;28;20038;-54
2022/02/28 19:43:24;;;;;;;20.83;10.68;;;10.50;95.10;;;;;;5030904;28;20124;-50
2022/02/28 19:45:50;;;;;;;21.80;9.93;;;10.40;95.20;;;;;;5032233;28;20045;-46
2022/02/28 19:48:18;;;;;;;21.27;10.60;;;10.40;95.40;;;;;;5032523;28;20116;-50
2022/02/28 19:50:45;;;;;;;17.17;9.35;;;10.40;95.50;;;;;;5031176;28;20504;-50
2022/02/28 19:53:12;;;;;;;16.92;9.68;;;10.40;95.60;;;;;;5032245;28;20042;-48
2022/02/28 19:55:39;;;;;;;22.65;10.43;;;10.40;95.70;;;;;;5032079;28;20041;-51
2022/02/28 19:58:06;;;;;;;16.15;9.77;;;10.30;95.80;;;;;;5028381;28;20116;-51
2022/02/28 20:00:33;;;;;;;20.98;11.02;;;10.30;95.90;;;;;;5030862;28;20048;-49
2022/02/28 20:03:01;;;;;;;19.40;11.38;;;10.30;95.90;;;;;;5032168;28;20046;-52
2022/02/28 20:05:28;;;;;;;22.23;11.63;;;10.30;96.00;;;;;;5032169;28;20045;-52
2022/02/28 20:07:55;;;;;;;24.77;10.68;;;10.30;96.10;;;;;;5035963;28;20045;-48
2022/02/28 20:10:21;;;;;;;21.35;10.48;;;10.30;96.30;;;;;;5035613;28;20045;-51
2022/02/28 20:12:50;;;;;;;19.63;11.00;;;10.30;96.30;;;;;;5035930;28;20048;-49
2022/02/28 20:15:17;;;;;;;21.15;10.57;;;10.30;96.50;;;;;;5035546;28;20050;-49
2022/02/28 20:17:43;;;;;;;18.23;10.63;;;10.30;96.60;;;;;;5035779;28;20558;-51
2022/02/28 20:20:10;;;;;;;21.45;10.48;;;10.30;96.60;;;;;;5035472;28;20045;-52
2022/02/28 20:22:38;;;;;;;26.52;11.15;;;10.30;96.70;;;;;;5037779;28;20076;-50
2022/02/28 20:25:05;;;;;;;21.52;11.35;;;10.30;97.10;;;;;;5035557;28;20416;-47
2022/02/28 20:27:31;;;;;;;18.85;10.55;;;10.30;96.90;;;;;;5035617;28;20033;-47
2022/02/28 20:29:58;;;;;;;22.73;11.30;;;10.30;97.10;;;;;;5035664;28;20095;-56
2022/02/28 20:32:25;;;;;;;22.10;11.50;;;10.20;97.10;;;;;;5035453;28;20419;-46
2022/02/28 20:34:52;;;;;;;17.63;10.52;;;10.30;97.20;;;;;;5035449;28;20045;-52
2022/02/28 20:37:19;;;;;;;19.50;10.93;;;10.30;97.40;;;;;;5034192;28;20531;-48
2022/02/28 20:39:45;;;;;;;18.33;11.73;;;10.30;97.50;;;;;;5034793;28;20518;-48
2022/02/28 20:42:12;;;;;;;21.80;11.65;;;10.20;97.50;;;;;;5034294;28;20041;-53
2022/02/28 20:44:39;;;;;;;19.35;11.90;;;10.20;97.50;;;;;;5036144;28;20382;-55
2022/02/28 20:47:06;;;;;;;19.92;11.13;;;10.20;97.60;;;;;;5035844;28;20049;-54
2022/02/28 20:49:33;;;;;;;19.88;11.90;;;10.30;97.80;;;;;;5035715;28;20041;-48
2022/02/28 20:52:00;;;;;;;24.48;12.15;;;10.30;97.90;;;;;;5038046;28;20496;-54
2022/02/28 20:54:26;;;;;;;34.67;19.95;;;10.30;97.80;;;;;;5035773;28;20045;-50
2022/02/28 20:56:53;;;;;;;22.27;14.45;;;10.30;98.20;;;;;;5035606;28;20424;-52
2022/02/28 20:59:26;;;;;;;23.80;12.80;;;10.20;98.20;;;;;;5035733;28;20077;-49
2022/02/28 21:01:52;;;;;;;16.48;11.98;;;10.20;98.20;;;;;;5035361;28;20041;-54
2022/02/28 21:04:19;;;;;;;19.08;12.18;;;10.20;98.10;;;;;;5035553;28;20044;-53
2022/02/28 21:06:46;;;;;;;22.30;13.52;;;10.20;98.30;;;;;;5035647;28;20037;-49
2022/02/28 21:09:13;;;;;;;20.58;12.45;;;10.20;98.30;;;;;;5035344;28;20048;-49
2022/02/28 21:11:40;;;;;;;18.25;12.75;;;10.20;98.50;;;;;;5035324;28;20052;-48
2022/02/28 21:14:06;;;;;;;18.42;12.18;;;10.20;98.30;;;;;;5035431;28;20041;-54
2022/02/28 21:16:33;;;;;;;19.92;12.07;;;10.20;98.50;;;;;;5035206;28;20041;-51
2022/02/28 21:19:00;;;;;;;18.92;12.02;;;10.20;98.50;;;;;;5034867;28;20041;-52
2022/02/28 21:21:27;;;;;;;19.35;11.90;;;10.20;98.50;;;;;;5038548;28;20421;-53
2022/02/28 21:23:54;;;;;;;17.30;12.00;;;10.20;98.50;;;;;;5035135;28;20034;-48
2022/02/28 21:26:20;;;;;;;17.13;10.65;;;10.20;98.50;;;;;;5035302;28;20045;-50
2022/02/28 21:28:47;;;;;;;19.77;11.93;;;10.20;98.70;;;;;;5041242;28;20035;-51
2022/02/28 21:31:14;;;;;;;15.40;10.30;;;10.20;98.70;;;;;;5035186;28;20546;-48
2022/02/28 21:33:41;;;;;;;13.07;10.93;;;10.30;98.60;;;;;;5036637;28;20048;-48
2022/02/28 21:36:08;;;;;;;18.83;10.80;;;10.30;98.80;;;;;;5034867;28;20048;-46
2022/02/28 21:38:36;;;;;;;19.73;11.88;;;10.30;98.80;;;;;;5035005;28;20095;-46
2022/02/28 21:41:03;;;;;;;13.38;10.30;;;10.20;98.70;;;;;;5034607;28;20041;-52
2022/02/28 21:43:29;;;;;;;12.85;10.57;;;10.30;98.70;;;;;;5035603;28;20037;-56
2022/02/28 21:45:56;;;;;;;15.50;10.43;;;10.30;98.90;;;;;;5028286;28;20049;-50
2022/02/28 21:48:23;;;;;;;17.45;12.32;;;10.30;98.80;;;;;;5036302;28;20073;-52
2022/02/28 21:50:53;;;;;;;18.35;10.63;;;10.30;99.00;;;;;;5034706;28;20052;-50
2022/02/28 21:53:20;;;;;;;15.57;10.15;;;10.30;98.80;;;;;;5028359;28;20055;-50
2022/02/28 21:55:47;;;;;;;14.88;10.32;;;10.30;98.90;;;;;;5035280;28;20492;-54
2022/02/28 21:58:14;;;;;;;15.73;10.95;;;10.30;98.90;;;;;;5040031;28;20120;-53
2022/02/28 22:00:43;;;;;;;15.45;10.57;;;10.40;99.00;;;;;;5026656;28;20087;-48
2022/02/28 22:03:10;;;;;;;16.30;10.20;;;10.40;98.90;;;;;;5034227;28;20038;-46
2022/02/28 22:05:37;;;;;;;15.55;10.43;;;10.40;98.90;;;;;;5034356;28;20038;-45
2022/02/28 22:08:04;;;;;;;11.43;9.57;;;10.40;99.00;;;;;;5034265;28;20124;-50
2022/02/28 22:10:30;;;;;;;14.10;10.45;;;10.40;99.00;;;;;;5034142;28;20048;-50
2022/02/28 22:12:57;;;;;;;14.38;10.50;;;10.40;99.00;;;;;;5034049;28;20528;-49
2022/02/28 22:15:24;;;;;;;14.30;10.07;;;10.40;99.20;;;;;;5037549;28;20047;-48
2022/02/28 22:17:51;;;;;;;15.85;9.73;;;10.40;99.20;;;;;;5034894;28;20045;-54
2022/02/28 22:20:18;;;;;;;16.00;10.30;;;10.40;99.30;;;;;;5033732;28;20056;-46
2022/02/28 22:22:46;;;;;;;13.20;9.43;;;10.40;99.20;;;;;;5033159;28;20037;-49
2022/02/28 22:25:13;;;;;;;13.77;9.57;;;10.40;99.20;;;;;;5034036;28;20041;-50
2022/02/28 22:27:40;;;;;;;15.73;9.73;;;10.40;99.30;;;;;;5033828;28;20485;-49
2022/02/28 22:30:07;;;;;;;13.23;9.23;;;10.40;99.40;;;;;;5037040;28;20049;-52
2022/02/28 22:32:34;;;;;;;14.88;9.85;;;10.40;99.40;;;;;;5033982;28;20048;-54
2022/02/28 22:35:00;;;;;;;14.57;9.50;;;10.40;99.40;;;;;;5033775;28;20050;-52
2022/02/28 22:37:27;;;;;;;14.27;8.73;;;10.40;99.50;;;;;;5033814;28;20048;-48
2022/02/28 22:39:56;;;;;;;10.05;8.52;;;10.40;99.50;;;;;;5033485;28;20443;-49
2022/02/28 22:42:24;;;;;;;16.15;9.60;;;10.40;99.50;;;;;;5033996;28;20050;-51
2022/02/28 22:44:51;;;;;;;13.18;9.23;;;10.40;99.60;;;;;;5033798;28;20037;-47
2022/02/28 22:47:18;;;;;;;12.48;8.75;;;10.40;99.60;;;;;;5033400;28;20120;-48
2022/02/28 22:49:49;;;;;;;12.30;8.95;;;10.40;99.70;;;;;;5033682;28;20511;-51
2022/02/28 22:52:15;;;;;;;12.93;9.40;;;10.40;99.60;;;;;;5032206;28;20076;-49
2022/02/28 22:54:42;;;;;;;10.75;9.15;;;10.40;99.60;;;;;;5033513;28;20072;-46
2022/02/28 22:57:09;;;;;;;9.80;7.85;;;10.40;99.70;;;;;;5033395;28;20481;-48
2022/02/28 22:59:36;;;;;;;14.80;9.13;;;10.40;99.60;;;;;;5039450;28;20049;-48
2022/02/28 23:02:03;;;;;;;10.88;8.50;;;10.40;99.60;;;;;;5033327;28;20068;-49
2022/02/28 23:04:31;;;;;;;10.88;8.23;;;10.50;99.60;;;;;;5038150;28;20041;-49
2022/02/28 23:06:57;;;;;;;11.45;8.15;;;10.40;99.50;;;;;;5033190;28;20120;-49
2022/02/28 23:20:26;;;;;;;9.30;7.15;;;10.40;99.80;;;;;;5032595;28;20054;-50
2022/02/28 23:22:53;;;;;;;9.82;7.18;;;10.50;99.70;;;;;;5033162;28;20041;-52
2022/02/28 23:25:20;;;;;;;9.20;6.88;;;10.40;99.80;;;;;;5033125;28;20041;-48
2022/02/28 23:27:47;;;;;;;8.38;7.20;;;10.40;99.70;;;;;;5031441;28;20447;-50
2022/02/28 23:30:14;;;;;;;8.27;6.30;;;10.40;99.70;;;;;;5026681;28;20038;-47
2022/02/28 23:32:41;;;;;;;10.25;7.20;;;10.40;99.80;;;;;;5031838;28;20099;-49
2022/02/28 23:35:08;;;;;;;12.32;7.38;;;10.50;99.70;;;;;;5033128;28;20510;-49
2022/02/28 23:37:34;;;;;;;7.68;6.45;;;10.50;99.70;;;;;;5033000;28;20385;-49
2022/02/28 23:40:01;;;;;;;7.22;6.20;;;10.50;99.70;;;;;;5032904;28;20053;-47
2022/02/28 23:42:28;;;;;;;11.65;6.70;;;10.50;99.70;;;;;;5035512;28;20037;-52
2022/02/28 23:44:55;;;;;;;8.30;6.22;;;10.50;99.70;;;;;;5037048;28;20037;-51
2022/02/28 23:47:22;;;;;;;9.32;6.28;;;10.50;99.80;;;;;;5036925;28;20396;-48
2022/02/28 23:49:49;;;;;;;8.20;6.15;;;10.50;99.70;;;;;;5042419;28;20044;-45
2022/02/28 23:52:15;;;;;;;7.85;6.38;;;10.50;99.70;;;;;;5037176;28;20451;-49
2022/02/28 23:54:42;;;;;;;8.90;6.50;;;10.50;99.80;;;;;;5040382;28;20047;-55
2022/02/28 23:57:09;;;;;;;8.15;6.43;;;10.50;99.90;;;;;;5036726;28;20079;-53
2022/02/28 23:59:36;;;;;;;7.53;6.57;;;10.50;99.90;;;;;;5036653;28;20041;-53
